Naval Air Station North Island

Airport
ICAO code: 
KNZY
Summary
ICAO Region: 
NAM
Territory: 
Location: 
San Diego, California,
Coordinates: 
Aerial View: 
32° 41' 52.657" N, 117° 12' 15.645" W
Airport WX: 
Fog
Metar
Observation
KNZY 262352Z 33011KT 10SM SCT250 20/06 A3000 RMK AO2 SLP160 T02000056 10239 20189 55006 $
Station
San Diego, North Island, Naval Air Station
Date/Time
2021-11-26 23:52:00
Wind direction
330°
Wind speed
11 kts
Lowest cloud amount
scattered clouds
Temperature
20°C
Dew point
5.6°C
Humidity
38%
Weather condition
n/a

Description

Naval Air Station North Island, or NAS North Island, is located at the north end of the Coronado peninsula on San Diego Bay in San Diego, California. It is the home port to the aircraft compliment of several aircraft carriers of the United States Navy.

Climatology

Semi-arid or Mediterranean (Köppen climate classification BSh or Csa/Csb). It enjoys mild, sunny weather throughout the year. Since the San Diego area straddles areas of Mediterranean climate (Csa) to the north, and Semi-arid climate (BSh) to the south and east, the climate is often referred to as "Mediterranean" or "arid-mediterranean". Fog is common in May and June.

Runways

Designator Length Width Surface Rops
11/29 2286 91 PEM Yes/Yes
18/36 2438 61 PEM Yes/Yes
Airport map: 
Aerial View: 

SKYbrary Partners:

Safety knowledge contributed by: